sensor_id;sensor_type;location;lat;lon;timestamp;temperature;humidity
45108;DHT22;30869;51.188;6.556;2022-09-09T00:03:44;17.30;99.90
45108;DHT22;30869;51.188;6.556;2022-09-09T00:06:24;17.50;99.90
45108;DHT22;30869;51.188;6.556;2022-09-09T00:17:16;17.80;99.90
45108;DHT22;30869;51.188;6.556;2022-09-09T00:22:21;17.90;99.90
45108;DHT22;30869;51.188;6.556;2022-09-09T00:25:08;17.90;99.90
45108;DHT22;30869;51.188;6.556;2022-09-09T00:27:48;18.10;99.90
45108;DHT22;30869;51.188;6.556;2022-09-09T00:30:25;18.20;99.90
45108;DHT22;30869;51.188;6.556;2022-09-09T00:32:59;18.30;99.90
45108;DHT22;30869;51.188;6.556;2022-09-09T00:35:49;18.30;99.90
45108;DHT22;30869;51.188;6.556;2022-09-09T00:38:36;18.20;99.90
45108;DHT22;30869;51.188;6.556;2022-09-09T00:41:29;18.30;99.90
45108;DHT22;30869;51.188;6.556;2022-09-09T00:44:12;18.40;99.90
45108;DHT22;30869;51.188;6.556;2022-09-09T00:46:50;18.50;99.90
45108;DHT22;30869;51.188;6.556;2022-09-09T00:57:33;16.90;99.90
45108;DHT22;30869;51.188;6.556;2022-09-09T01:03:25;16.30;99.90
45108;DHT22;30869;51.188;6.556;2022-09-09T01:08:49;16.40;99.90
45108;DHT22;30869;51.188;6.556;2022-09-09T01:11:26;16.60;99.90
45108;DHT22;30869;51.188;6.556;2022-09-09T01:16:45;16.20;99.90
45108;DHT22;30869;51.188;6.556;2022-09-09T01:19:16;16.60;99.90
45108;DHT22;30869;51.188;6.556;2022-09-09T01:24:31;17.30;99.90
45108;DHT22;30869;51.188;6.556;2022-09-09T01:27:05;17.40;99.90
45108;DHT22;30869;51.188;6.556;2022-09-09T01:29:32;17.60;99.90
45108;DHT22;30869;51.188;6.556;2022-09-09T01:34:51;17.80;99.90
45108;DHT22;30869;51.188;6.556;2022-09-09T01:37:20;17.90;99.90
45108;DHT22;30869;51.188;6.556;2022-09-09T01:39:46;17.90;99.90
45108;DHT22;30869;51.188;6.556;2022-09-09T01:42:18;18.00;99.90
45108;DHT22;30869;51.188;6.556;2022-09-09T01:44:47;18.10;99.90
45108;DHT22;30869;51.188;6.556;2022-09-09T01:47:16;17.90;99.90
45108;DHT22;30869;51.188;6.556;2022-09-09T01:49:46;18.00;99.90
45108;DHT22;30869;51.188;6.556;2022-09-09T01:52:22;18.10;99.90
45108;DHT22;30869;51.188;6.556;2022-09-09T01:54:48;18.00;99.90
45108;DHT22;30869;51.188;6.556;2022-09-09T01:57:29;18.00;99.90
45108;DHT22;30869;51.188;6.556;2022-09-09T02:00:11;17.80;99.90
45108;DHT22;30869;51.188;6.556;2022-09-09T02:03:05;17.30;99.90
45108;DHT22;30869;51.188;6.556;2022-09-09T02:05:40;17.30;99.90
45108;DHT22;30869;51.188;6.556;2022-09-09T02:08:28;17.30;99.90
45108;DHT22;30869;51.188;6.556;2022-09-09T02:11:07;17.50;99.90
45108;DHT22;30869;51.188;6.556;2022-09-09T02:13:39;17.50;99.90
45108;DHT22;30869;51.188;6.556;2022-09-09T02:16:11;17.60;99.90
45108;DHT22;30869;51.188;6.556;2022-09-09T02:22:01;17.90;99.90
45108;DHT22;30869;51.188;6.556;2022-09-09T02:24:31;18.00;99.90
45108;DHT22;30869;51.188;6.556;2022-09-09T02:27:04;17.90;99.90
45108;DHT22;30869;51.188;6.556;2022-09-09T02:29:34;18.00;99.90
45108;DHT22;30869;51.188;6.556;2022-09-09T02:32:06;18.00;99.90
45108;DHT22;30869;51.188;6.556;2022-09-09T02:34:36;17.90;99.90
45108;DHT22;30869;51.188;6.556;2022-09-09T02:37:04;17.80;99.90
45108;DHT22;30869;51.188;6.556;2022-09-09T02:39:35;17.70;99.90
45108;DHT22;30869;51.188;6.556;2022-09-09T02:42:04;17.80;99.90
45108;DHT22;30869;51.188;6.556;2022-09-09T02:44:30;18.00;99.90
45108;DHT22;30869;51.188;6.556;2022-09-09T02:52:13;17.90;99.90
45108;DHT22;30869;51.188;6.556;2022-09-09T02:54:42;18.10;99.90
45108;DHT22;30869;51.188;6.556;2022-09-09T02:57:22;17.70;99.90
45108;DHT22;30869;51.188;6.556;2022-09-09T02:59:49;17.80;99.90
45108;DHT22;30869;51.188;6.556;2022-09-09T03:02:15;17.80;99.90
45108;DHT22;30869;51.188;6.556;2022-09-09T03:04:41;17.70;99.90
45108;DHT22;30869;51.188;6.556;2022-09-09T03:07:11;17.90;99.90
45108;DHT22;30869;51.188;6.556;2022-09-09T03:09:37;17.90;99.90
45108;DHT22;30869;51.188;6.556;2022-09-09T03:12:03;17.70;99.90
45108;DHT22;30869;51.188;6.556;2022-09-09T03:14:30;17.80;99.90
45108;DHT22;30869;51.188;6.556;2022-09-09T03:16:56;17.70;99.90
45108;DHT22;30869;51.188;6.556;2022-09-09T03:19:26;17.60;99.90
45108;DHT22;30869;51.188;6.556;2022-09-09T03:21:53;17.80;99.90
45108;DHT22;30869;51.188;6.556;2022-09-09T03:24:20;17.70;99.90
45108;DHT22;30869;51.188;6.556;2022-09-09T03:26:45;17.70;99.90
45108;DHT22;30869;51.188;6.556;2022-09-09T03:29:12;17.70;99.90
45108;DHT22;30869;51.188;6.556;2022-09-09T03:31:39;17.70;99.90
45108;DHT22;30869;51.188;6.556;2022-09-09T03:34:08;17.60;99.90
45108;DHT22;30869;51.188;6.556;2022-09-09T03:36:37;17.70;99.90
45108;DHT22;30869;51.188;6.556;2022-09-09T03:39:06;17.50;99.90
45108;DHT22;30869;51.188;6.556;2022-09-09T03:41:35;17.70;99.90
45108;DHT22;30869;51.188;6.556;2022-09-09T03:44:09;17.60;99.90
45108;DHT22;30869;51.188;6.556;2022-09-09T03:46:35;17.70;99.90
45108;DHT22;30869;51.188;6.556;2022-09-09T03:49:01;17.70;99.90
45108;DHT22;30869;51.188;6.556;2022-09-09T03:51:28;17.70;99.90
45108;DHT22;30869;51.188;6.556;2022-09-09T03:53:57;17.80;99.90
45108;DHT22;30869;51.188;6.556;2022-09-09T03:56:24;17.80;99.90
45108;DHT22;30869;51.188;6.556;2022-09-09T03:58:50;17.90;99.90
45108;DHT22;30869;51.188;6.556;2022-09-09T04:01:15;17.90;99.90
45108;DHT22;30869;51.188;6.556;2022-09-09T04:03:43;17.70;99.90
45108;DHT22;30869;51.188;6.556;2022-09-09T04:06:17;17.90;99.90
45108;DHT22;30869;51.188;6.556;2022-09-09T04:08:48;17.80;99.90
45108;DHT22;30869;51.188;6.556;2022-09-09T04:11:15;17.60;99.90
45108;DHT22;30869;51.188;6.556;2022-09-09T04:13:41;17.80;99.90
45108;DHT22;30869;51.188;6.556;2022-09-09T04:16:10;18.00;99.90
45108;DHT22;30869;51.188;6.556;2022-09-09T04:18:37;17.80;99.90
45108;DHT22;30869;51.188;6.556;2022-09-09T04:21:03;17.70;99.90
45108;DHT22;30869;51.188;6.556;2022-09-09T04:23:33;17.70;99.90
45108;DHT22;30869;51.188;6.556;2022-09-09T04:26:01;17.40;99.90
45108;DHT22;30869;51.188;6.556;2022-09-09T04:28:33;17.60;99.90
45108;DHT22;30869;51.188;6.556;2022-09-09T04:31:15;17.60;99.90
45108;DHT22;30869;51.188;6.556;2022-09-09T04:33:42;17.70;99.90
45108;DHT22;30869;51.188;6.556;2022-09-09T04:36:08;17.70;99.90
45108;DHT22;30869;51.188;6.556;2022-09-09T04:38:34;17.80;99.90
45108;DHT22;30869;51.188;6.556;2022-09-09T04:41:03;18.00;99.90
45108;DHT22;30869;51.188;6.556;2022-09-09T04:43:29;17.90;99.90
45108;DHT22;30869;51.188;6.556;2022-09-09T04:45:59;18.00;99.90
45108;DHT22;30869;51.188;6.556;2022-09-09T04:48:25;17.80;99.90
45108;DHT22;30869;51.188;6.556;2022-09-09T04:50:58;17.90;99.90
45108;DHT22;30869;51.188;6.556;2022-09-09T04:53:24;17.90;99.90
45108;DHT22;30869;51.188;6.556;2022-09-09T04:55:51;18.00;99.90
45108;DHT22;30869;51.188;6.556;2022-09-09T04:58:17;17.70;99.90
45108;DHT22;30869;51.188;6.556;2022-09-09T05:00:44;18.00;99.90
45108;DHT22;30869;51.188;6.556;2022-09-09T05:03:09;17.80;99.90
45108;DHT22;30869;51.188;6.556;2022-09-09T05:05:35;17.70;99.90
45108;DHT22;30869;51.188;6.556;2022-09-09T05:08:06;17.60;99.90
45108;DHT22;30869;51.188;6.556;2022-09-09T05:10:33;17.60;99.90
45108;DHT22;30869;51.188;6.556;2022-09-09T05:13:02;17.80;99.90
45108;DHT22;30869;51.188;6.556;2022-09-09T05:15:27;17.60;99.90
45108;DHT22;30869;51.188;6.556;2022-09-09T05:18:00;17.60;99.90
45108;DHT22;30869;51.188;6.556;2022-09-09T05:20:26;17.60;99.90
45108;DHT22;30869;51.188;6.556;2022-09-09T05:22:56;17.70;99.90
45108;DHT22;30869;51.188;6.556;2022-09-09T05:25:22;17.80;99.90
45108;DHT22;30869;51.188;6.556;2022-09-09T05:27:50;17.70;99.90
45108;DHT22;30869;51.188;6.556;2022-09-09T05:30:16;17.90;99.90
45108;DHT22;30869;51.188;6.556;2022-09-09T05:32:44;18.00;99.90
45108;DHT22;30869;51.188;6.556;2022-09-09T05:35:10;18.10;99.90
45108;DHT22;30869;51.188;6.556;2022-09-09T05:37:35;18.10;99.90
45108;DHT22;30869;51.188;6.556;2022-09-09T05:40:01;18.10;99.90
45108;DHT22;30869;51.188;6.556;2022-09-09T05:42:31;18.10;99.90
45108;DHT22;30869;51.188;6.556;2022-09-09T05:44:58;18.10;99.90
45108;DHT22;30869;51.188;6.556;2022-09-09T05:47:24;18.20;99.90
45108;DHT22;30869;51.188;6.556;2022-09-09T05:49:50;18.00;99.90
45108;DHT22;30869;51.188;6.556;2022-09-09T05:52:16;18.10;99.90
45108;DHT22;30869;51.188;6.556;2022-09-09T05:54:41;18.00;99.90
45108;DHT22;30869;51.188;6.556;2022-09-09T05:57:08;18.00;99.90
45108;DHT22;30869;51.188;6.556;2022-09-09T05:59:34;17.90;99.90
45108;DHT22;30869;51.188;6.556;2022-09-09T06:02:00;17.80;99.90
45108;DHT22;30869;51.188;6.556;2022-09-09T06:04:26;17.70;99.90
45108;DHT22;30869;51.188;6.556;2022-09-09T06:06:52;17.70;99.90
45108;DHT22;30869;51.188;6.556;2022-09-09T06:09:17;17.90;99.90
45108;DHT22;30869;51.188;6.556;2022-09-09T06:11:43;18.00;99.90
45108;DHT22;30869;51.188;6.556;2022-09-09T06:14:09;17.90;99.90
45108;DHT22;30869;51.188;6.556;2022-09-09T06:16:35;18.00;99.90
45108;DHT22;30869;51.188;6.556;2022-09-09T06:19:03;18.00;99.90
45108;DHT22;30869;51.188;6.556;2022-09-09T06:21:36;18.10;99.90
45108;DHT22;30869;51.188;6.556;2022-09-09T06:24:03;18.40;99.90
45108;DHT22;30869;51.188;6.556;2022-09-09T06:26:34;18.30;99.90
45108;DHT22;30869;51.188;6.556;2022-09-09T06:29:01;18.40;99.90
45108;DHT22;30869;51.188;6.556;2022-09-09T06:31:29;18.40;99.90
45108;DHT22;30869;51.188;6.556;2022-09-09T06:33:57;18.60;99.90
45108;DHT22;30869;51.188;6.556;2022-09-09T06:36:24;18.60;99.90
45108;DHT22;30869;51.188;6.556;2022-09-09T06:38:51;18.70;99.90
45108;DHT22;30869;51.188;6.556;2022-09-09T06:41:19;18.60;99.90
45108;DHT22;30869;51.188;6.556;2022-09-09T06:43:46;18.80;99.90
45108;DHT22;30869;51.188;6.556;2022-09-09T06:46:13;19.20;99.90
45108;DHT22;30869;51.188;6.556;2022-09-09T06:48:40;19.40;99.90
45108;DHT22;30869;51.188;6.556;2022-09-09T06:51:31;19.60;99.90
45108;DHT22;30869;51.188;6.556;2022-09-09T06:53:59;19.50;99.90
45108;DHT22;30869;51.188;6.556;2022-09-09T06:56:26;19.60;99.90
45108;DHT22;30869;51.188;6.556;2022-09-09T06:58:55;19.30;99.90
45108;DHT22;30869;51.188;6.556;2022-09-09T07:01:26;19.20;99.90
45108;DHT22;30869;51.188;6.556;2022-09-09T07:03:55;19.30;99.90
45108;DHT22;30869;51.188;6.556;2022-09-09T07:06:28;19.00;99.90
45108;DHT22;30869;51.188;6.556;2022-09-09T07:08:56;19.00;99.90
45108;DHT22;30869;51.188;6.556;2022-09-09T07:11:27;18.90;99.90
45108;DHT22;30869;51.188;6.556;2022-09-09T07:13:54;19.10;99.90
45108;DHT22;30869;51.188;6.556;2022-09-09T07:16:21;19.40;99.90
45108;DHT22;30869;51.188;6.556;2022-09-09T07:18:50;19.60;99.90
45108;DHT22;30869;51.188;6.556;2022-09-09T07:21:16;19.60;99.90
45108;DHT22;30869;51.188;6.556;2022-09-09T07:23:43;19.50;99.90
45108;DHT22;30869;51.188;6.556;2022-09-09T07:26:14;19.30;99.90
45108;DHT22;30869;51.188;6.556;2022-09-09T07:28:40;19.10;99.90
45108;DHT22;30869;51.188;6.556;2022-09-09T07:31:12;18.90;99.90
45108;DHT22;30869;51.188;6.556;2022-09-09T07:33:39;18.90;99.90
45108;DHT22;30869;51.188;6.556;2022-09-09T07:36:07;19.20;99.90
45108;DHT22;30869;51.188;6.556;2022-09-09T07:38:47;19.40;99.90
45108;DHT22;30869;51.188;6.556;2022-09-09T07:41:21;19.40;99.90
45108;DHT22;30869;51.188;6.556;2022-09-09T07:43:49;19.50;99.90
45108;DHT22;30869;51.188;6.556;2022-09-09T07:46:17;19.30;99.90
45108;DHT22;30869;51.188;6.556;2022-09-09T07:48:50;19.30;99.90
45108;DHT22;30869;51.188;6.556;2022-09-09T07:51:33;19.10;99.90
45108;DHT22;30869;51.188;6.556;2022-09-09T07:54:01;19.10;99.90
45108;DHT22;30869;51.188;6.556;2022-09-09T07:56:28;19.40;99.90
45108;DHT22;30869;51.188;6.556;2022-09-09T07:58:55;19.40;99.90
45108;DHT22;30869;51.188;6.556;2022-09-09T08:01:23;19.30;99.90
45108;DHT22;30869;51.188;6.556;2022-09-09T08:03:58;19.30;99.90
45108;DHT22;30869;51.188;6.556;2022-09-09T08:06:26;19.10;99.90
45108;DHT22;30869;51.188;6.556;2022-09-09T08:08:52;19.20;99.90
45108;DHT22;30869;51.188;6.556;2022-09-09T08:11:20;19.10;99.90
45108;DHT22;30869;51.188;6.556;2022-09-09T08:13:46;19.30;99.90
45108;DHT22;30869;51.188;6.556;2022-09-09T08:16:17;19.50;99.90
45108;DHT22;30869;51.188;6.556;2022-09-09T08:18:43;19.70;99.90
45108;DHT22;30869;51.188;6.556;2022-09-09T08:21:15;19.70;99.90
45108;DHT22;30869;51.188;6.556;2022-09-09T08:23:43;19.80;99.90
45108;DHT22;30869;51.188;6.556;2022-09-09T08:26:13;19.80;99.90
45108;DHT22;30869;51.188;6.556;2022-09-09T08:28:41;19.80;99.90
45108;DHT22;30869;51.188;6.556;2022-09-09T08:31:18;20.00;99.90
45108;DHT22;30869;51.188;6.556;2022-09-09T08:33:45;19.90;99.90
45108;DHT22;30869;51.188;6.556;2022-09-09T08:36:13;19.60;99.90
45108;DHT22;30869;51.188;6.556;2022-09-09T08:38:42;19.40;99.90
45108;DHT22;30869;51.188;6.556;2022-09-09T08:44:23;19.30;99.90
45108;DHT22;30869;51.188;6.556;2022-09-09T08:46:56;19.30;99.90
45108;DHT22;30869;51.188;6.556;2022-09-09T08:54:58;19.20;99.90
45108;DHT22;30869;51.188;6.556;2022-09-09T08:57:28;19.20;99.90
45108;DHT22;30869;51.188;6.556;2022-09-09T08:59:57;19.00;99.90
45108;DHT22;30869;51.188;6.556;2022-09-09T09:02:56;19.10;99.90
45108;DHT22;30869;51.188;6.556;2022-09-09T09:05:35;19.10;99.90
45108;DHT22;30869;51.188;6.556;2022-09-09T09:13:02;19.10;99.90
45108;DHT22;30869;51.188;6.556;2022-09-09T09:15:36;19.10;99.90
45108;DHT22;30869;51.188;6.556;2022-09-09T09:18:03;19.10;99.90
45108;DHT22;30869;51.188;6.556;2022-09-09T09:20:49;19.10;99.90
45108;DHT22;30869;51.188;6.556;2022-09-09T09:23:22;19.10;99.90
45108;DHT22;30869;51.188;6.556;2022-09-09T09:25:48;19.20;99.90
45108;DHT22;30869;51.188;6.556;2022-09-09T09:28:20;19.20;99.90
45108;DHT22;30869;51.188;6.556;2022-09-09T09:31:09;19.30;99.90
45108;DHT22;30869;51.188;6.556;2022-09-09T09:33:51;19.30;99.90
45108;DHT22;30869;51.188;6.556;2022-09-09T09:36:25;19.30;99.90
45108;DHT22;30869;51.188;6.556;2022-09-09T09:39:26;19.30;99.90
45108;DHT22;30869;51.188;6.556;2022-09-09T09:41:52;19.30;99.90
45108;DHT22;30869;51.188;6.556;2022-09-09T09:44:28;19.20;99.90
45108;DHT22;30869;51.188;6.556;2022-09-09T09:50:01;19.40;99.90
45108;DHT22;30869;51.188;6.556;2022-09-09T09:52:29;19.30;99.90
45108;DHT22;30869;51.188;6.556;2022-09-09T09:54:57;19.20;99.80
45108;DHT22;30869;51.188;6.556;2022-09-09T09:57:27;19.30;99.90
45108;DHT22;30869;51.188;6.556;2022-09-09T10:00:14;19.30;99.90
45108;DHT22;30869;51.188;6.556;2022-09-09T10:02:43;19.30;99.90
45108;DHT22;30869;51.188;6.556;2022-09-09T10:07:40;19.50;99.90
45108;DHT22;30869;51.188;6.556;2022-09-09T10:10:11;19.30;99.80
45108;DHT22;30869;51.188;6.556;2022-09-09T10:13:00;19.30;99.90
45108;DHT22;30869;51.188;6.556;2022-09-09T10:15:37;19.30;99.90
45108;DHT22;30869;51.188;6.556;2022-09-09T10:21:15;19.20;99.90
45108;DHT22;30869;51.188;6.556;2022-09-09T10:24:11;19.20;99.90
45108;DHT22;30869;51.188;6.556;2022-09-09T10:32:31;19.30;99.90
45108;DHT22;30869;51.188;6.556;2022-09-09T10:35:57;19.30;99.90
45108;DHT22;30869;51.188;6.556;2022-09-09T10:38:46;19.30;99.90
45108;DHT22;30869;51.188;6.556;2022-09-09T10:44:14;19.20;99.80
45108;DHT22;30869;51.188;6.556;2022-09-09T10:46:59;19.20;99.90
45108;DHT22;30869;51.188;6.556;2022-09-09T10:52:37;19.20;99.80
45108;DHT22;30869;51.188;6.556;2022-09-09T10:55:17;19.20;99.80
45108;DHT22;30869;51.188;6.556;2022-09-09T10:57:45;19.30;99.80
45108;DHT22;30869;51.188;6.556;2022-09-09T11:00:20;19.30;99.70
45108;DHT22;30869;51.188;6.556;2022-09-09T11:03:03;19.30;99.60
45108;DHT22;30869;51.188;6.556;2022-09-09T11:05:49;19.20;99.70
45108;DHT22;30869;51.188;6.556;2022-09-09T11:08:26;19.20;99.60
45108;DHT22;30869;51.188;6.556;2022-09-09T11:13:49;19.30;99.60
45108;DHT22;30869;51.188;6.556;2022-09-09T11:16:57;19.40;99.80
45108;DHT22;30869;51.188;6.556;2022-09-09T11:19:42;19.30;99.90
45108;DHT22;30869;51.188;6.556;2022-09-09T11:22:27;19.30;99.60
45108;DHT22;30869;51.188;6.556;2022-09-09T11:25:26;19.30;99.60
45108;DHT22;30869;51.188;6.556;2022-09-09T11:31:54;19.40;99.40
45108;DHT22;30869;51.188;6.556;2022-09-09T11:35:00;19.40;99.60
45108;DHT22;30869;51.188;6.556;2022-09-09T11:40:25;19.40;99.70
45108;DHT22;30869;51.188;6.556;2022-09-09T11:43:18;19.40;99.50
45108;DHT22;30869;51.188;6.556;2022-09-09T11:46:02;19.40;99.60
45108;DHT22;30869;51.188;6.556;2022-09-09T11:48:36;19.50;99.90
45108;DHT22;30869;51.188;6.556;2022-09-09T11:51:09;19.50;99.90
45108;DHT22;30869;51.188;6.556;2022-09-09T11:53:52;19.50;99.90
45108;DHT22;30869;51.188;6.556;2022-09-09T11:59:38;19.50;99.60
45108;DHT22;30869;51.188;6.556;2022-09-09T12:02:13;19.50;99.90
45108;DHT22;30869;51.188;6.556;2022-09-09T12:07:37;19.50;99.90
45108;DHT22;30869;51.188;6.556;2022-09-09T12:10:17;19.50;99.90
45108;DHT22;30869;51.188;6.556;2022-09-09T12:12:48;19.50;99.80
45108;DHT22;30869;51.188;6.556;2022-09-09T12:15:30;19.50;99.90
45108;DHT22;30869;51.188;6.556;2022-09-09T12:18:07;19.50;99.90
45108;DHT22;30869;51.188;6.556;2022-09-09T12:21:18;19.50;99.90
45108;DHT22;30869;51.188;6.556;2022-09-09T12:23:52;19.50;99.80
45108;DHT22;30869;51.188;6.556;2022-09-09T12:26:40;19.50;99.90
45108;DHT22;30869;51.188;6.556;2022-09-09T12:29:44;19.60;99.90
45108;DHT22;30869;51.188;6.556;2022-09-09T12:32:17;19.60;99.90
45108;DHT22;30869;51.188;6.556;2022-09-09T12:37:56;19.40;99.90
45108;DHT22;30869;51.188;6.556;2022-09-09T12:40:31;19.30;99.90
45108;DHT22;30869;51.188;6.556;2022-09-09T12:43:00;19.20;99.90
45108;DHT22;30869;51.188;6.556;2022-09-09T12:51:41;18.70;99.90
45108;DHT22;30869;51.188;6.556;2022-09-09T12:54:42;18.80;99.90
45108;DHT22;30869;51.188;6.556;2022-09-09T12:57:43;18.90;99.90
45108;DHT22;30869;51.188;6.556;2022-09-09T13:00:26;18.90;99.90
45108;DHT22;30869;51.188;6.556;2022-09-09T13:06:28;19.10;99.90
45108;DHT22;30869;51.188;6.556;2022-09-09T13:09:12;19.10;99.90
45108;DHT22;30869;51.188;6.556;2022-09-09T13:11:54;19.20;99.90
45108;DHT22;30869;51.188;6.556;2022-09-09T13:15:23;19.20;99.90
45108;DHT22;30869;51.188;6.556;2022-09-09T13:17:58;19.30;99.90
45108;DHT22;30869;51.188;6.556;2022-09-09T13:20:50;19.30;99.90
45108;DHT22;30869;51.188;6.556;2022-09-09T13:23:57;19.40;99.90
45108;DHT22;30869;51.188;6.556;2022-09-09T14:13:18;19.70;99.90
45108;DHT22;30869;51.188;6.556;2022-09-09T14:32:11;18.10;99.90
45108;DHT22;30869;51.188;6.556;2022-09-09T14:37:45;17.90;99.90
45108;DHT22;30869;51.188;6.556;2022-09-09T14:40:11;18.00;99.90
45108;DHT22;30869;51.188;6.556;2022-09-09T14:42:37;17.80;99.90
45108;DHT22;30869;51.188;6.556;2022-09-09T14:45:10;18.10;99.90
45108;DHT22;30869;51.188;6.556;2022-09-09T14:47:40;18.40;99.90
45108;DHT22;30869;51.188;6.556;2022-09-09T14:50:19;18.60;99.90
45108;DHT22;30869;51.188;6.556;2022-09-09T14:52:48;18.70;99.90
45108;DHT22;30869;51.188;6.556;2022-09-09T14:55:16;18.80;99.90
45108;DHT22;30869;51.188;6.556;2022-09-09T14:57:42;18.80;99.90
45108;DHT22;30869;51.188;6.556;2022-09-09T15:00:11;18.80;99.90
45108;DHT22;30869;51.188;6.556;2022-09-09T15:02:38;18.90;99.90
45108;DHT22;30869;51.188;6.556;2022-09-09T15:05:04;18.90;99.90
45108;DHT22;30869;51.188;6.556;2022-09-09T15:07:30;19.00;99.90
45108;DHT22;30869;51.188;6.556;2022-09-09T15:09:59;19.00;99.90
45108;DHT22;30869;51.188;6.556;2022-09-09T15:12:36;19.10;99.90
45108;DHT22;30869;51.188;6.556;2022-09-09T15:15:04;18.70;99.90
45108;DHT22;30869;51.188;6.556;2022-09-09T15:17:31;18.60;99.90
45108;DHT22;30869;51.188;6.556;2022-09-09T15:20:00;18.60;99.90
45108;DHT22;30869;51.188;6.556;2022-09-09T15:22:26;18.70;99.90
45108;DHT22;30869;51.188;6.556;2022-09-09T15:24:52;18.60;99.90
45108;DHT22;30869;51.188;6.556;2022-09-09T15:27:33;18.70;99.90
45108;DHT22;30869;51.188;6.556;2022-09-09T15:30:23;18.80;99.90
45108;DHT22;30869;51.188;6.556;2022-09-09T15:32:49;18.80;99.90
45108;DHT22;30869;51.188;6.556;2022-09-09T15:35:29;18.70;99.90
45108;DHT22;30869;51.188;6.556;2022-09-09T15:38:02;18.70;99.90
45108;DHT22;30869;51.188;6.556;2022-09-09T15:40:30;18.80;99.90
45108;DHT22;30869;51.188;6.556;2022-09-09T15:43:06;18.70;99.90
45108;DHT22;30869;51.188;6.556;2022-09-09T15:45:33;18.70;99.90
45108;DHT22;30869;51.188;6.556;2022-09-09T15:48:03;18.70;99.90
45108;DHT22;30869;51.188;6.556;2022-09-09T15:50:29;19.00;99.90
45108;DHT22;30869;51.188;6.556;2022-09-09T15:52:56;19.10;99.90
45108;DHT22;30869;51.188;6.556;2022-09-09T15:55:22;18.90;99.90
45108;DHT22;30869;51.188;6.556;2022-09-09T15:57:51;18.90;99.90
45108;DHT22;30869;51.188;6.556;2022-09-09T16:00:18;18.80;99.90
45108;DHT22;30869;51.188;6.556;2022-09-09T16:02:46;18.60;99.90
45108;DHT22;30869;51.188;6.556;2022-09-09T16:05:12;18.50;99.90
45108;DHT22;30869;51.188;6.556;2022-09-09T16:07:38;18.70;99.90
45108;DHT22;30869;51.188;6.556;2022-09-09T16:10:04;18.70;99.90
45108;DHT22;30869;51.188;6.556;2022-09-09T16:12:31;18.70;99.90
45108;DHT22;30869;51.188;6.556;2022-09-09T16:14:57;18.70;99.90
45108;DHT22;30869;51.188;6.556;2022-09-09T16:17:22;18.80;99.90
45108;DHT22;30869;51.188;6.556;2022-09-09T16:19:48;18.70;99.90
45108;DHT22;30869;51.188;6.556;2022-09-09T16:22:14;18.70;99.90
45108;DHT22;30869;51.188;6.556;2022-09-09T16:24:41;18.70;99.90
45108;DHT22;30869;51.188;6.556;2022-09-09T16:27:07;18.60;99.90
45108;DHT22;30869;51.188;6.556;2022-09-09T16:29:33;18.80;99.90
45108;DHT22;30869;51.188;6.556;2022-09-09T16:34:56;18.90;99.90
45108;DHT22;30869;51.188;6.556;2022-09-09T16:37:23;18.90;99.90
45108;DHT22;30869;51.188;6.556;2022-09-09T16:39:49;18.90;99.90
45108;DHT22;30869;51.188;6.556;2022-09-09T16:42:16;19.00;99.90
45108;DHT22;30869;51.188;6.556;2022-09-09T16:44:42;19.00;99.90
45108;DHT22;30869;51.188;6.556;2022-09-09T16:47:08;19.00;99.90
45108;DHT22;30869;51.188;6.556;2022-09-09T16:49:34;19.00;99.90
45108;DHT22;30869;51.188;6.556;2022-09-09T16:52:00;19.00;99.90
45108;DHT22;30869;51.188;6.556;2022-09-09T16:54:26;18.90;99.90
45108;DHT22;30869;51.188;6.556;2022-09-09T16:56:52;18.90;99.90
45108;DHT22;30869;51.188;6.556;2022-09-09T16:59:20;18.90;99.90
45108;DHT22;30869;51.188;6.556;2022-09-09T17:01:48;18.90;99.90
45108;DHT22;30869;51.188;6.556;2022-09-09T17:04:17;18.80;99.90
45108;DHT22;30869;51.188;6.556;2022-09-09T17:06:50;18.80;99.90
45108;DHT22;30869;51.188;6.556;2022-09-09T17:09:17;18.70;99.90
45108;DHT22;30869;51.188;6.556;2022-09-09T17:11:43;18.60;99.90
45108;DHT22;30869;51.188;6.556;2022-09-09T17:14:14;18.70;99.90
45108;DHT22;30869;51.188;6.556;2022-09-09T17:16:41;18.70;99.90
45108;DHT22;30869;51.188;6.556;2022-09-09T17:19:08;18.70;99.90
45108;DHT22;30869;51.188;6.556;2022-09-09T17:21:35;18.70;99.90
45108;DHT22;30869;51.188;6.556;2022-09-09T17:24:01;18.70;99.90
45108;DHT22;30869;51.188;6.556;2022-09-09T17:26:37;18.70;99.90
45108;DHT22;30869;51.188;6.556;2022-09-09T17:29:04;18.70;99.90
45108;DHT22;30869;51.188;6.556;2022-09-09T17:34:32;18.70;99.90
45108;DHT22;30869;51.188;6.556;2022-09-09T17:36:58;18.80;99.90
45108;DHT22;30869;51.188;6.556;2022-09-09T17:39:25;18.80;99.90
45108;DHT22;30869;51.188;6.556;2022-09-09T17:41:51;18.80;99.90
45108;DHT22;30869;51.188;6.556;2022-09-09T17:45:02;18.90;99.90
45108;DHT22;30869;51.188;6.556;2022-09-09T17:47:28;18.90;99.90
45108;DHT22;30869;51.188;6.556;2022-09-09T17:49:56;19.00;99.90
45108;DHT22;30869;51.188;6.556;2022-09-09T17:52:23;18.90;99.90
45108;DHT22;30869;51.188;6.556;2022-09-09T17:54:53;18.90;99.90
45108;DHT22;30869;51.188;6.556;2022-09-09T17:57:26;18.80;99.90
45108;DHT22;30869;51.188;6.556;2022-09-09T17:59:55;18.80;99.90
45108;DHT22;30869;51.188;6.556;2022-09-09T18:02:24;18.90;99.90
45108;DHT22;30869;51.188;6.556;2022-09-09T18:04:53;18.90;99.90
45108;DHT22;30869;51.188;6.556;2022-09-09T18:07:19;18.90;99.90
45108;DHT22;30869;51.188;6.556;2022-09-09T18:09:57;18.90;99.90
45108;DHT22;30869;51.188;6.556;2022-09-09T18:12:23;18.80;99.90
45108;DHT22;30869;51.188;6.556;2022-09-09T18:14:49;18.70;99.90
45108;DHT22;30869;51.188;6.556;2022-09-09T18:17:15;18.60;99.90
45108;DHT22;30869;51.188;6.556;2022-09-09T18:19:44;18.70;99.90
45108;DHT22;30869;51.188;6.556;2022-09-09T18:22:10;18.60;99.90
45108;DHT22;30869;51.188;6.556;2022-09-09T18:24:36;18.60;99.90
45108;DHT22;30869;51.188;6.556;2022-09-09T18:27:02;18.60;99.90
45108;DHT22;30869;51.188;6.556;2022-09-09T18:29:28;18.50;99.90
45108;DHT22;30869;51.188;6.556;2022-09-09T18:32:06;18.50;99.90
45108;DHT22;30869;51.188;6.556;2022-09-09T18:34:33;18.50;99.90
45108;DHT22;30869;51.188;6.556;2022-09-09T18:37:07;18.60;99.90
45108;DHT22;30869;51.188;6.556;2022-09-09T18:39:34;18.60;99.90
45108;DHT22;30869;51.188;6.556;2022-09-09T18:42:03;18.60;99.90
45108;DHT22;30869;51.188;6.556;2022-09-09T18:44:32;18.60;99.90
45108;DHT22;30869;51.188;6.556;2022-09-09T18:46:58;18.80;99.90
45108;DHT22;30869;51.188;6.556;2022-09-09T18:49:25;18.70;99.90
45108;DHT22;30869;51.188;6.556;2022-09-09T18:51:56;18.80;99.90
45108;DHT22;30869;51.188;6.556;2022-09-09T18:54:56;18.70;99.90
45108;DHT22;30869;51.188;6.556;2022-09-09T18:57:21;18.70;99.90
45108;DHT22;30869;51.188;6.556;2022-09-09T18:59:47;18.90;99.90